^^
Grace C. Lehan Memorial Weather Station Historical Data
Daily Summary for June 7, 2022 Units:  English    Metric   Both
Daily Weekly Monthly Yearly
  High: Low: Average:
Temperature: 71.2 °F 61.7 °F 66 °F
Dew Point: 63.5 °F 60.8 °F 62 °F
Humidity: 97% 74% 88%
Wind Speed: 3.6mph 0mph 0.3mph
Wind Gust: 10mph - -
Wind- - ESE
Pressure: 30.04 in 29.94 in -
Precipitation: 0.00 in    
 
 
Tabular Data for June 7, 2022
Time Temperature Dew Point Pressure Wind Wind Speed Wind Gust Humidity Rainfall Rate (Hourly) solar
00:00 63.8 °F 62.9 °F 30.04 in Calm   5 mph 97% 0.01 in 0 W/m2
00:09 63.7 °F 62.9 °F 30.04 in ENE 0.4 mph 5 mph 97% 0.01 in 0 W/m2
00:14 63.7 °F 62.8 °F 30.04 in Calm   5 mph 97% 0.01 in 0 W/m2
00:19 63.6 °F 62.7 °F 30.04 in Calm   5 mph 97% 0.01 in 0 W/m2
00:24 63.6 °F 62.7 °F 30.04 in ENE 0.1 mph 5 mph 97% 0.01 in 0 W/m2
00:29 63.6 °F 62.7 °F 30.04 in Calm   5 mph 97% 0.01 in 0 W/m2
00:34 63.6 °F 62.7 °F 30.04 in Calm   5 mph 97% 0.01 in 0 W/m2
00:35 63.6 °F 62.7 °F 30.04 in Calm   2 mph 97% 0.00 in 0 W/m2
01:00 63.2 °F 62.3 °F 30.03 in Calm   4 mph 97% 0.00 in 0 W/m2
01:30 62.9 °F 62 °F 30.03 in Calm   9 mph 97% 0.00 in 0 W/m2
02:00 62.6 °F 61.7 °F 30.02 in Calm   7 mph 97% 0.00 in 0 W/m2
02:30 62.4 °F 61.5 °F 30.01 in Calm   9 mph 97% 0.00 in 0 W/m2
03:00 62.2 °F 61.3 °F 30.00 in Calm   7 mph 97% 0.00 in 0 W/m2
03:30 62.1 °F 61.2 °F 30.00 in Calm   7 mph 97% 0.00 in 0 W/m2
04:04 62 °F 61.1 °F 30.00 in Calm     97% 0.00 in 0 W/m2
04:09 62 °F 61.1 °F 30.00 in NNW 0.3 mph 6 mph 97% 0.00 in 0 W/m2
04:14 62 °F 61.1 °F 30.00 in Calm   6 mph 97% 0.00 in 0 W/m2
04:19 61.9 °F 61 °F 30.00 in Calm   6 mph 97% 0.00 in 0 W/m2
04:24 61.9 °F 61 °F 30.00 in Calm   6 mph 97% 0.00 in 0 W/m2
04:29 61.9 °F 61 °F 30.00 in Calm   6 mph 97% 0.00 in 0 W/m2
04:34 61.9 °F 61 °F 30.00 in Calm   6 mph 97% 0.00 in 0 W/m2
04:39 61.9 °F 61 °F 30.00 in NNW 0.2 mph 4 mph 97% 0.00 in 0 W/m2
04:44 62 °F 61.1 °F 30.00 in NNW 0.1 mph 4 mph 97% 0.00 in 0 W/m2
04:49 62 °F 61.1 °F 30.00 in Calm   4 mph 97% 0.00 in 0 W/m2
04:54 62 °F 61.1 °F 30.00 in Calm   4 mph 97% 0.00 in 0 W/m2
04:59 62 °F 61.1 °F 30.00 in Calm   4 mph 97% 0.00 in 0 W/m2
05:04 62 °F 61.1 °F 30.00 in NNW 0.1 mph 4 mph 97% 0.00 in 0 W/m2
05:09 62 °F 61.1 °F 30.00 in Calm   2 mph 97% 0.00 in 0 W/m2
05:14 62 °F 61.1 °F 30.00 in Calm   4 mph 97% 0.00 in 0 W/m2
05:19 62 °F 61.1 °F 30.00 in Calm   4 mph 97% 0.00 in 0 W/m2
05:24 62 °F 61.1 °F 30.01 in Calm   4 mph 97% 0.00 in 0 W/m2
05:29 62 °F 61.1 °F 30.01 in Calm   4 mph 97% 0.00 in 0 W/m2
05:34 62 °F 61.1 °F 30.02 in Calm   4 mph 97% 0.00 in 0 W/m2
05:39 62 °F 61.1 °F 30.02 in Calm   1 mph 97% 0.00 in 0 W/m2
05:44 62 °F 61.1 °F 30.02 in Calm   1 mph 97% 0.00 in 0 W/m2
05:49 61.9 °F 61 °F 30.02 in Calm   1 mph 97% 0.00 in 0 W/m2
05:54 61.9 °F 61 °F 30.02 in NNW 0.2 mph 3 mph 97% 0.00 in 0 W/m2
05:59 61.9 °F 61 °F 30.02 in Calm   3 mph 97% 0.00 in 0 W/m2
06:04 61.9 °F 61 °F 30.02 in Calm   3 mph 97% 0.00 in 0 W/m2
06:09 61.9 °F 61 °F 30.02 in Calm   1 mph 97% 0.00 in 0 W/m2
06:14 61.8 °F 61 °F 30.02 in Calm   1 mph 97% 0.00 in 0 W/m2
06:19 61.8 °F 60.9 °F 30.02 in Calm   1 mph 97% 0.00 in 0 W/m2
06:24 61.8 °F 60.9 °F 30.02 in Calm   1 mph 97% 0.00 in 0 W/m2
06:29 61.8 °F 60.9 °F 30.02 in Calm   1 mph 97% 0.00 in 0 W/m2
06:34 61.8 °F 60.9 °F 30.02 in Calm   1 mph 97% 0.00 in 0 W/m2
06:39 61.8 °F 60.9 °F 30.02 in Calm   1 mph 97% 0.00 in 0 W/m2
06:44 61.7 °F 60.9 °F 30.02 in Calm   1 mph 97% 0.00 in 7 W/m2
06:49 61.7 °F 60.8 °F 30.02 in Calm   1 mph 97% 0.00 in 9 W/m2
06:54 61.7 °F 60.8 °F 30.03 in Calm   1 mph 97% 0.00 in 9 W/m2
06:59 61.7 °F 60.8 °F 30.03 in Calm   1 mph 97% 0.00 in 12 W/m2
07:04 61.7 °F 60.8 °F 30.03 in Calm   1 mph 97% 0.00 in 18 W/m2
07:09 61.8 °F 60.9 °F 30.03 in NNE 0.2 mph 3 mph 97% 0.00 in 26 W/m2
07:14 61.7 °F 60.9 °F 30.03 in Calm   3 mph 97% 0.00 in 28 W/m2
07:19 61.7 °F 60.9 °F 30.03 in NNE 0.1 mph 3 mph 97% 0.00 in 26 W/m2
07:24 61.7 °F 60.8 °F 30.03 in NW 0.5 mph 7 mph 97% 0.00 in 30 W/m2
07:29 61.7 °F 60.9 °F 30.03 in NNE 0.2 mph 7 mph 97% 0.00 in 30 W/m2
07:34 61.7 °F 60.8 °F 30.03 in ENE 0.4 mph 7 mph 97% 0.00 in 35 W/m2
07:39 61.7 °F 60.8 °F 30.03 in North 0.1 mph 5 mph 97% 0.00 in 40 W/m2
07:44 61.7 °F 60.8 °F 30.02 in NNW 0.1 mph 5 mph 97% 0.00 in 44 W/m2
07:49 61.7 °F 60.8 °F 30.02 in Calm   5 mph 97% 0.00 in 56 W/m2
07:54 61.7 °F 60.9 °F 30.02 in Calm   5 mph 97% 0.00 in 72 W/m2
07:59 61.8 °F 60.9 °F 30.02 in Calm   5 mph 97% 0.00 in 70 W/m2
08:04 61.9 °F 61 °F 30.01 in North 1.3 mph 4 mph 97% 0.00 in 77 W/m2
08:09 61.9 °F 61 °F 30.02 in NNE 0.2 mph 4 mph 97% 0.00 in 84 W/m2
08:14 61.8 °F 61 °F 30.02 in Calm   4 mph 97% 0.00 in 111 W/m2
08:19 62 °F 61.1 °F 30.02 in ENE 0.2 mph 6 mph 97% 0.00 in 132 W/m2
08:24 62.1 °F 61.2 °F 30.02 in ENE 0.2 mph 6 mph 97% 0.00 in 130 W/m2
08:29 62.2 °F 61.3 °F 30.02 in ENE 0.1 mph 6 mph 97% 0.00 in 132 W/m2
08:34 62.3 °F 61.4 °F 30.02 in Calm   6 mph 97% 0.00 in 141 W/m2
08:39 62.4 °F 61.5 °F 30.02 in NNE 1.3 mph 10 mph 97% 0.00 in 118 W/m2
08:44 62.4 °F 61.5 °F 30.02 in ENE 0.5 mph 10 mph 97% 0.00 in 118 W/m2
08:49 62.4 °F 61.5 °F 30.02 in NE 0.6 mph 10 mph 97% 0.00 in 90 W/m2
08:54 62.4 °F 61.5 °F 30.02 in NE 0.7 mph 10 mph 97% 0.00 in 93 W/m2
08:59 62.5 °F 61.6 °F 30.02 in ENE 1.5 mph 10 mph 97% 0.00 in 120 W/m2
09:04 62.5 °F 61.6 °F 30.02 in ENE 1.3 mph 10 mph 97% 0.00 in 141 W/m2
09:09 62.5 °F 61.6 °F 30.02 in East 1.2 mph 7 mph 97% 0.00 in 127 W/m2
09:14 62.6 °F 61.6 °F 30.02 in ENE 2.2 mph 9 mph 96.6% 0.00 in 130 W/m2
09:19 62.8 °F 61.6 °F 30.02 in ENE 1.1 mph 9 mph 96% 0.00 in 172 W/m2
09:24 63 °F 61.8 °F 30.02 in NE 1.6 mph 9 mph 96% 0.00 in 172 W/m2
09:29 63.1 °F 61.9 °F 30.02 in ENE 0.7 mph 9 mph 96% 0.00 in 120 W/m2
09:34 63.3 °F 61.9 °F 30.02 in Calm   9 mph 95.2% 0.00 in 88 W/m2
09:39 63.4 °F 61.9 °F 30.02 in East 0.2 mph 6 mph 95% 0.00 in 88 W/m2
09:44 63.5 °F 62 °F 30.02 in ENE 0.7 mph 6 mph 94.9% 0.00 in 90 W/m2
09:49 63.5 °F 61.8 °F 30.02 in NE 0.7 mph 6 mph 94% 0.00 in 105 W/m2
09:54 63.6 °F 61.8 °F 30.02 in ENE 1.4 mph 9 mph 93.8% 0.00 in 125 W/m2
09:59 63.6 °F 61.6 °F 30.02 in NE 0.7 mph 9 mph 93% 0.00 in 130 W/m2
10:04 63.8 °F 61.7 °F 30.03 in NE 2.7 mph 10 mph 93% 0.00 in 135 W/m2
10:09 63.9 °F 61.8 °F 30.02 in ENE 0.8 mph 10 mph 93% 0.00 in 190 W/m2
10:14 64.1 °F 61.9 °F 30.02 in NE 0.4 mph 10 mph 92.8% 0.00 in 204 W/m2
10:19 64.3 °F 61.9 °F 30.02 in ENE 0.3 mph 10 mph 92% 0.00 in 197 W/m2
10:24 64.6 °F 62.2 °F 30.02 in ENE 1.4 mph 10 mph 92% 0.00 in 232 W/m2
10:29 64.8 °F 62.1 °F 30.01 in East 1.1 mph 10 mph 90.8% 0.00 in 232 W/m2
10:34 65 °F 62.1 °F 30.02 in NE 0.3 mph 10 mph 90.2% 0.00 in 181 W/m2
10:39 65.3 °F 62.3 °F 30.02 in WNW 0.8 mph 9 mph 90% 0.00 in 202 W/m2
10:44 65.4 °F 62.2 °F 30.02 in East 0.2 mph 9 mph 89.4% 0.00 in 251 W/m2
10:49 65.6 °F 62.2 °F 30.02 in NE 1 mph 10 mph 88.8% 0.00 in 301 W/m2
10:54 65.9 °F 62.4 °F 30.02 in NE 0.5 mph 10 mph 88.4% 0.00 in 311 W/m2
10:59 66.1 °F 62.3 °F 30.02 in Calm   10 mph 87.5% 0.00 in 285 W/m2
11:04 66.4 °F 62.5 °F 30.02 in Calm   10 mph 87.4% 0.00 in 330 W/m2
11:09 66.7 °F 62.9 °F 30.01 in Calm   1 mph 87.4% 0.00 in 406 W/m2
11:14 67.2 °F 63.3 °F 30.01 in NE 1.1 mph 7 mph 87.2% 0.00 in 373 W/m2
11:19 67.4 °F 62.6 °F 30.01 in ENE 3.6 mph 10 mph 84.7% 0.00 in 299 W/m2
11:24 67.6 °F 62.6 °F 30.01 in NE 0.8 mph 10 mph 84% 0.00 in 227 W/m2
11:29 67.7 °F 62.5 °F 30.01 in ENE 0.9 mph 10 mph 83.6% 0.00 in 216 W/m2
11:34 67.8 °F 62.8 °F 30.01 in NNE 0.2 mph 10 mph 83.8% 0.00 in 274 W/m2
11:39 68 °F 63 °F 30.01 in Calm   3 mph 83.9% 0.00 in 332 W/m2
11:44 68.2 °F 62.8 °F 30.01 in NE 0.7 mph 5 mph 83% 0.00 in 299 W/m2
11:49 68.2 °F 62.4 °F 30.01 in ENE 0.4 mph 5 mph 81.9% 0.00 in 244 W/m2
11:54 68.1 °F 62.6 °F 30.01 in Calm   5 mph 82.3% 0.00 in 352 W/m2
11:59 68.2 °F 62.8 °F 30.01 in ENE 0.4 mph 5 mph 82.6% 0.00 in 406 W/m2
12:00 68.3 °F 62.9 °F 30.01 in Calm   5 mph 83% 0.00 in 348 W/m2
12:09 68.6 °F 62.4 °F 30.01 in ENE 1.8 mph 7 mph 80.4% 0.00 in 415 W/m2
12:14 68.9 °F 63 °F 30.00 in North 0.1 mph 7 mph 81.5% 0.00 in 436 W/m2
12:19 69.4 °F 63.4 °F 30.00 in NNW 0.4 mph 7 mph 81.2% 0.00 in 436 W/m2
12:24 69.7 °F 62.9 °F 30.00 in ENE 0.7 mph 9 mph 79% 0.00 in 413 W/m2
12:29 69.8 °F 62.9 °F 30.00 in ENE 0.5 mph 9 mph 78.8% 0.00 in 413 W/m2
12:34 69.9 °F 63.1 °F 30.00 in North 0.6 mph 10 mph 79% 0.00 in 397 W/m2
12:39 70.1 °F 62.9 °F 30.00 in ENE 0.7 mph 10 mph 78.1% 0.00 in 343 W/m2
12:44 70.1 °F 62.9 °F 30.00 in NW 0.2 mph 10 mph 78% 0.00 in 265 W/m2
12:49 70 °F 62.9 °F 30.00 in Calm   10 mph 78.3% 0.00 in 246 W/m2
12:54 70 °F 63 °F 30.00 in Calm   10 mph 78.4% 0.00 in 244 W/m2
12:59 70 °F 63 °F 30.00 in NW 0.3 mph 10 mph 78.4% 0.00 in 246 W/m2
13:04 70.1 °F 63.1 °F 30.00 in NE 0.3 mph 10 mph 78.5% 0.00 in 241 W/m2
13:09 70 °F 62.7 °F 29.99 in NE 0.7 mph 5 mph 77.5% 0.00 in 258 W/m2
13:14 70.1 °F 62.9 °F 29.99 in Calm   5 mph 77.8% 0.00 in 248 W/m2
13:19 70.2 °F 63 °F 29.99 in Calm   5 mph 78% 0.00 in 225 W/m2
13:24 70.2 °F 63 °F 29.99 in NE 0.4 mph 5 mph 77.9% 0.00 in 179 W/m2
13:29 70.2 °F 62.8 °F 29.99 in ENE 0.4 mph 5 mph 77.3% 0.00 in 236 W/m2
13:34 70.1 °F 62.3 °F 29.99 in ENE 0.4 mph 5 mph 76.3% 0.00 in 250 W/m2
13:39 70.1 °F 63 °F 29.99 in NNW 0.1 mph 4 mph 78.2% 0.00 in 260 W/m2
13:44 70.3 °F 63 °F 29.99 in ENE 0.6 mph 7 mph 77.8% 0.00 in 251 W/m2
13:49 70.4 °F 63.2 °F 29.99 in Calm   7 mph 78.1% 0.00 in 221 W/m2
13:54 70.6 °F 63.4 °F 29.99 in NE 0.3 mph 7 mph 78% 0.00 in 123 W/m2
13:59 70.6 °F 62.8 °F 29.99 in NE 1 mph 7 mph 76.3% 0.00 in 120 W/m2
14:04 70.4 °F 62.7 °F 29.99 in NE 0.3 mph 7 mph 76.5% 0.00 in 186 W/m2
14:09 70.3 °F 62.8 °F 29.99 in NE 0.5 mph 5 mph 77% 0.00 in 244 W/m2
14:14 70.3 °F 62.7 °F 29.98 in Calm   5 mph 76.7% 0.00 in 258 W/m2
14:19 70.5 °F 62.7 °F 29.98 in NE 0.3 mph 5 mph 76.6% 0.00 in 236 W/m2
14:24 70.6 °F 62.8 °F 29.98 in Calm   5 mph 76.3% 0.00 in 251 W/m2
14:29 70.8 °F 63.1 °F 29.98 in ENE 0.7 mph 6 mph 76.7% 0.00 in 246 W/m2
14:34 71 °F 63.3 °F 29.98 in NE 0.6 mph 6 mph 76.8% 0.00 in 162 W/m2
15:00 70.4 °F 62.5 °F 29.97 in Calm   5 mph 76% 0.00 in 89 W/m2
15:30 71.2 °F 62.5 °F 29.96 in Calm   4 mph 74% 0.00 in 205 W/m2
16:04 71.2 °F 62.5 °F 29.96 in Calm   4 mph 74% 0.00 in 205 W/m2
16:09 70.7 °F 63.3 °F 29.95 in Calm     77.4% 0.00 in 162 W/m2
16:14 70.7 °F 63.5 °F 29.95 in Calm   1 mph 77.9% 0.00 in 125 W/m2
16:19 70.7 °F 62.9 °F 29.95 in Calm   1 mph 76.4% 0.00 in 165 W/m2
16:24 70.7 °F 62.9 °F 29.95 in Calm   1 mph 76.3% 0.00 in 186 W/m2
16:29 70.9 °F 63 °F 29.95 in NE 0.5 mph 5 mph 76.2% 0.00 in 209 W/m2
16:34 71 °F 63 °F 29.95 in NE 0.3 mph 5 mph 75.8% 0.00 in 209 W/m2
16:39 71.1 °F 62.9 °F 29.94 in Calm   4 mph 75.2% 0.00 in 174 W/m2
16:44 71.2 °F 62.9 °F 29.94 in NE 0.2 mph 4 mph 75% 0.00 in 105 W/m2
16:49 71.2 °F 62.6 °F 29.95 in NE 0.3 mph 4 mph 74.3% 0.00 in 83 W/m2
16:54 71.1 °F 62.7 °F 29.95 in Calm   4 mph 75% 0.00 in 74 W/m2
16:59 70.9 °F 62.7 °F 29.95 in NE 0.3 mph 4 mph 75.1% 0.00 in 76 W/m2
17:04 70.8 °F 62.8 °F 29.95 in NE 0.3 mph 4 mph 75.7% 0.00 in 100 W/m2
17:09 70.8 °F 62.9 °F 29.95 in Calm   4 mph 76.2% 0.00 in 121 W/m2
17:14 70.7 °F 62.8 °F 29.95 in ENE 1.2 mph 5 mph 76.2% 0.00 in 125 W/m2
17:19 70.7 °F 62.8 °F 29.95 in ENE 0.3 mph 5 mph 76% 0.00 in 116 W/m2
17:24 70.6 °F 62.5 °F 29.95 in ENE 0.6 mph 5 mph 75.4% 0.00 in 81 W/m2
17:29 70.6 °F 62.7 °F 29.95 in Calm   5 mph 76% 0.00 in 77 W/m2
17:34 70.6 °F 62.7 °F 29.94 in ENE 0.5 mph 6 mph 76.3% 0.00 in 70 W/m2
17:39 70.5 °F 62.6 °F 29.94 in Calm   6 mph 76% 0.00 in 56 W/m2
17:44 70.4 °F 62.5 °F 29.94 in ENE 0.7 mph 6 mph 76% 0.00 in 54 W/m2
17:49 70.3 °F 62.4 °F 29.94 in Calm   6 mph 76% 0.00 in 69 W/m2
17:54 70.2 °F 62.5 °F 29.94 in ENE 0.1 mph 6 mph 76.7% 0.00 in 69 W/m2
17:59 70.1 °F 62.2 °F 29.94 in Calm   6 mph 76% 0.00 in 63 W/m2
18:04 70.1 °F 62.2 °F 29.94 in ENE 0.1 mph 6 mph 76% 0.00 in 54 W/m2
18:09 70.1 °F 62.3 °F 29.94 in Calm   4 mph 76.4% 0.00 in 49 W/m2
18:14 70.1 °F 62.6 °F 29.95 in Calm   4 mph 77% 0.00 in 37 W/m2
18:19 70.1 °F 62.5 °F 29.95 in Calm   4 mph 77% 0.00 in 28 W/m2
18:24 70 °F 62.5 °F 29.95 in Calm   4 mph 77% 0.00 in 30 W/m2
18:29 69.9 °F 62.4 °F 29.94 in Calm   4 mph 77% 0.00 in 26 W/m2
18:34 69.9 °F 62.4 °F 29.94 in ENE 0.1 mph 4 mph 77% 0.00 in 23 W/m2
18:39 69.8 °F 62.4 °F 29.95 in Calm   3 mph 77.3% 0.00 in 19 W/m2
18:44 69.7 °F 62.3 °F 29.95 in Calm   3 mph 77.2% 0.00 in 18 W/m2
18:49 69.7 °F 62.2 °F 29.95 in Calm   3 mph 77.1% 0.00 in 11 W/m2
18:54 69.6 °F 62.3 °F 29.95 in Calm   3 mph 77.6% 0.00 in 5 W/m2
18:59 69.5 °F 62.3 °F 29.95 in Calm   3 mph 78% 0.00 in 5 W/m2
19:04 69.4 °F 62.2 °F 29.94 in ENE 0.2 mph 5 mph 78% 0.00 in 0 W/m2
19:09 69.2 °F 62 °F 29.95 in Calm   5 mph 77.8% 0.00 in 0 W/m2
19:14 69.2 °F 62 °F 29.94 in Calm   5 mph 78% 0.00 in 0 W/m2
19:19 69.1 °F 62 °F 29.94 in Calm   5 mph 78% 0.00 in 0 W/m2
19:23 69 °F 61.9 °F 29.94 in Calm   5 mph 78% 0.00 in 0 W/m2
Hartford County Weather
Compliments of Weather Underground - 2 mb